createdAt,value
2023-04-29T00:01:19.890Z,4.57
2023-04-29T00:03:48.294Z,4.35
2023-04-29T00:06:17.020Z,4.03
2023-04-29T00:08:46.104Z,3.60
2023-04-29T00:11:14.468Z,3.90
2023-04-29T00:13:42.465Z,3.35
2023-04-29T00:16:10.875Z,2.90
2023-04-29T00:18:38.924Z,2.95
2023-04-29T00:21:07.005Z,2.67
2023-04-29T00:23:35.010Z,2.95
2023-04-29T00:26:04.103Z,3.20
2023-04-29T00:28:31.846Z,2.85
2023-04-29T00:31:00.871Z,2.97
2023-04-29T00:33:28.664Z,3.10
2023-04-29T00:35:56.713Z,2.55
2023-04-29T00:38:24.745Z,2.80
2023-04-29T00:40:53.326Z,3.15
2023-04-29T00:43:23.406Z,3.63
2023-04-29T00:45:52.328Z,3.30
2023-04-29T00:48:21.165Z,3.25
2023-04-29T00:50:48.850Z,3.47
2023-04-29T00:53:16.609Z,3.50
2023-04-29T00:55:46.296Z,3.67
2023-04-29T00:58:14.430Z,4.00
2023-04-29T01:00:44.094Z,4.72
2023-04-29T01:03:12.129Z,4.55
2023-04-29T01:05:40.008Z,4.88
2023-04-29T01:08:27.008Z,4.15
2023-04-29T01:10:58.025Z,3.67
2023-04-29T01:13:32.127Z,2.97
2023-04-29T01:16:09.779Z,2.05
2023-04-29T01:18:43.408Z,1.85
2023-04-29T01:21:12.142Z,1.63
2023-04-29T01:23:41.242Z,1.75
2023-04-29T01:26:09.457Z,1.58
2023-04-29T01:29:03.891Z,1.30
2023-04-29T01:31:34.912Z,1.60
2023-04-29T01:34:10.456Z,1.48
2023-04-29T01:36:49.317Z,1.50
2023-04-29T01:39:28.648Z,1.77
2023-04-29T01:42:15.941Z,1.10
2023-04-29T01:44:44.736Z,1.38
2023-04-29T01:47:15.968Z,1.10
2023-04-29T01:49:48.480Z,1.00
2023-04-29T01:52:16.208Z,1.15
2023-04-29T01:54:53.669Z,1.25
2023-04-29T01:57:21.832Z,0.98
2023-04-29T02:00:02.163Z,1.13
2023-04-29T02:02:43.701Z,1.10
2023-04-29T02:05:32.218Z,1.00
2023-04-29T02:08:00.059Z,1.30
2023-04-29T02:10:29.742Z,1.10
2023-04-29T02:13:11.983Z,1.20
2023-04-29T02:15:39.776Z,1.17
2023-04-29T02:18:08.336Z,1.20
2023-04-29T02:20:36.262Z,1.13
2023-04-29T02:23:06.316Z,1.10
2023-04-29T02:25:35.658Z,1.65
2023-04-29T02:28:03.581Z,1.15
2023-04-29T02:30:31.429Z,1.40
2023-04-29T02:32:59.129Z,1.45
2023-04-29T02:35:27.204Z,1.10
2023-04-29T02:37:55.597Z,1.30
2023-04-29T02:40:25.559Z,1.83
2023-04-29T02:42:54.543Z,1.20
2023-04-29T02:45:22.605Z,1.65
2023-04-29T02:47:50.382Z,1.30
2023-04-29T02:50:18.466Z,1.48
2023-04-29T02:52:46.605Z,1.50
2023-04-29T02:55:14.446Z,1.50
2023-04-29T02:57:43.201Z,1.50
2023-04-29T03:00:13.293Z,1.50
2023-04-29T03:02:41.747Z,1.17
2023-04-29T03:05:10.781Z,1.40
2023-04-29T03:07:38.679Z,1.40
2023-04-29T03:10:07.971Z,1.42
2023-04-29T03:12:39.404Z,1.60
2023-04-29T03:15:10.732Z,1.75
2023-04-29T03:17:40.412Z,1.52
2023-04-29T03:20:10.962Z,1.30
2023-04-29T03:22:38.682Z,1.98
2023-04-29T03:25:07.874Z,1.65
2023-04-29T03:27:35.813Z,1.63
2023-04-29T03:30:03.812Z,1.55
2023-04-29T03:32:32.324Z,1.92
2023-04-29T03:35:03.360Z,1.70
2023-04-29T03:37:38.948Z,1.48
2023-04-29T03:40:32.547Z,1.98
2023-04-29T03:43:00.853Z,2.17
2023-04-29T03:45:29.139Z,2.00
2023-04-29T03:47:57.266Z,1.98
2023-04-29T03:50:26.827Z,2.03
2023-04-29T03:52:54.989Z,2.03
2023-04-29T03:55:22.798Z,1.80
2023-04-29T03:57:50.553Z,2.17
2023-04-29T04:00:19.657Z,2.20
2023-04-29T04:02:53.552Z,1.90
2023-04-29T04:05:25.004Z,1.70
2023-04-29T04:07:58.393Z,1.88
2023-04-29T04:10:35.946Z,2.72
2023-04-29T04:13:08.832Z,2.03
2023-04-29T04:15:37.823Z,1.95
2023-04-29T04:18:06.128Z,2.08
2023-04-29T04:20:34.042Z,2.05
2023-04-29T04:23:04.547Z,2.00
2023-04-29T04:25:33.210Z,2.00
2023-04-29T04:28:14.494Z,1.85
2023-04-29T04:30:57.010Z,2.17
2023-04-29T04:33:24.878Z,1.80
2023-04-29T04:35:53.232Z,2.10
2023-04-29T04:38:25.218Z,2.20
2023-04-29T04:40:53.112Z,2.08
2023-04-29T04:43:34.298Z,2.05
2023-04-29T04:46:11.192Z,1.80
2023-04-29T04:48:42.921Z,1.90
2023-04-29T04:51:14.426Z,2.17
2023-04-29T04:53:45.576Z,1.85
2023-04-29T04:56:20.502Z,2.10
2023-04-29T04:58:48.267Z,2.28
2023-04-29T05:01:16.678Z,1.90
2023-04-29T05:03:45.296Z,2.17
2023-04-29T05:06:13.872Z,1.95
2023-04-29T05:08:45.151Z,2.50
2023-04-29T05:11:19.186Z,1.92
2023-04-29T05:13:58.293Z,2.80
2023-04-29T05:16:29.728Z,2.95
2023-04-29T05:18:57.523Z,3.20
2023-04-29T05:21:31.344Z,3.22
2023-04-29T05:24:01.619Z,3.05
2023-04-29T05:26:29.598Z,3.15
2023-04-29T05:29:01.308Z,3.58
2023-04-29T05:31:33.482Z,3.58
2023-04-29T05:34:04.216Z,3.72
2023-04-29T05:36:32.935Z,3.63
2023-04-29T05:39:01.921Z,3.58
2023-04-29T05:41:30.792Z,3.95
2023-04-29T05:44:21.887Z,4.03
2023-04-29T05:46:51.645Z,4.00
2023-04-29T05:49:20.471Z,3.92
2023-04-29T05:51:48.808Z,4.05
2023-04-29T05:54:18.309Z,3.95
2023-04-29T05:56:47.690Z,4.47
2023-04-29T05:59:15.347Z,3.92
2023-04-29T06:01:50.869Z,4.03
2023-04-29T06:04:18.988Z,4.63
2023-04-29T06:07:10.211Z,4.70
2023-04-29T06:09:58.442Z,4.80
2023-04-29T06:12:27.388Z,4.63
2023-04-29T06:14:55.103Z,6.22
2023-04-29T06:17:22.868Z,7.50
2023-04-29T06:19:52.095Z,9.95
2023-04-29T06:22:20.170Z,11.63
2023-04-29T06:24:52.779Z,12.75
2023-04-29T06:27:37.021Z,14.38
2023-04-29T06:30:07.601Z,14.95
2023-04-29T06:32:36.050Z,14.43
2023-04-29T06:35:03.989Z,14.73
2023-04-29T06:38:08.252Z,12.90
2023-04-29T06:40:54.493Z,12.95
2023-04-29T06:43:43.320Z,14.40
2023-04-29T06:46:30.173Z,13.50
2023-04-29T06:49:19.258Z,13.75
2023-04-29T06:51:47.377Z,13.15
2023-04-29T06:54:15.294Z,13.38
2023-04-29T06:56:42.967Z,12.27
2023-04-29T06:59:12.639Z,12.25
2023-04-29T07:01:43.439Z,13.45
2023-04-29T07:04:12.846Z,12.70
2023-04-29T07:06:40.840Z,12.95
2023-04-29T07:09:09.158Z,12.80
2023-04-29T07:11:38.019Z,13.02
2023-04-29T07:14:06.335Z,13.55
2023-04-29T07:16:35.555Z,12.88
2023-04-29T07:19:03.724Z,12.10
2023-04-29T07:21:32.041Z,10.85
2023-04-29T07:24:02.236Z,9.60
2023-04-29T07:26:30.763Z,9.25
2023-04-29T07:28:58.648Z,8.40
2023-04-29T07:31:26.511Z,7.88
2023-04-29T07:33:57.432Z,8.20
2023-04-29T07:36:25.724Z,8.02
2023-04-29T07:38:53.481Z,8.55
2023-04-29T07:41:21.537Z,8.50
2023-04-29T07:43:50.153Z,8.48
2023-04-29T07:46:18.235Z,9.25
2023-04-29T07:48:46.176Z,7.95
2023-04-29T07:51:16.093Z,8.20
2023-04-29T07:53:43.829Z,8.45
2023-04-29T07:56:11.610Z,8.68
2023-04-29T07:58:41.652Z,8.52
2023-04-29T08:01:10.211Z,8.75
2023-04-29T08:03:41.140Z,8.65
2023-04-29T08:06:10.532Z,9.43
2023-04-29T08:08:39.652Z,8.98
2023-04-29T08:11:07.680Z,9.50
2023-04-29T08:13:38.544Z,8.40
2023-04-29T08:16:06.745Z,7.32
2023-04-29T08:18:36.703Z,7.60
2023-04-29T08:21:04.939Z,7.68
2023-04-29T08:23:33.139Z,7.97
2023-04-29T08:26:03.815Z,8.05
2023-04-29T08:28:31.936Z,6.82
2023-04-29T08:30:59.822Z,6.03
2023-04-29T08:33:27.557Z,6.53
2023-04-29T08:35:59.496Z,5.90
2023-04-29T08:38:27.962Z,5.35
2023-04-29T08:40:56.655Z,5.13
2023-04-29T08:43:26.352Z,4.97
2023-04-29T08:45:54.540Z,5.30
2023-04-29T08:48:23.005Z,5.40
2023-04-29T08:50:50.936Z,5.68
2023-04-29T08:53:18.858Z,5.72
2023-04-29T08:55:48.049Z,5.80
2023-04-29T08:58:17.106Z,6.22
2023-04-29T09:00:46.355Z,6.25
2023-04-29T09:03:21.620Z,5.90
2023-04-29T09:05:50.884Z,6.00
2023-04-29T09:08:19.258Z,5.82
2023-04-29T09:10:47.624Z,6.10
2023-04-29T09:13:25.805Z,6.28
2023-04-29T09:15:55.553Z,6.15
2023-04-29T09:18:46.647Z,5.72
2023-04-29T09:21:15.964Z,5.22
2023-04-29T09:23:44.022Z,5.78
2023-04-29T09:26:11.951Z,5.38
2023-04-29T09:28:43.600Z,6.13
2023-04-29T09:31:13.475Z,6.03
2023-04-29T09:33:54.881Z,6.38
2023-04-29T09:36:44.981Z,6.97
2023-04-29T09:39:15.032Z,7.57
2023-04-29T09:41:57.740Z,6.85
2023-04-29T09:44:27.216Z,6.70
2023-04-29T09:47:02.529Z,6.97
2023-04-29T09:49:35.606Z,7.10
2023-04-29T09:52:04.955Z,6.88
2023-04-29T09:54:34.027Z,7.47
2023-04-29T09:57:05.913Z,6.35
2023-04-29T09:59:36.257Z,6.75
2023-04-29T10:02:09.325Z,6.30
2023-04-29T10:04:41.534Z,6.68
2023-04-29T10:07:10.514Z,6.88
2023-04-29T10:09:40.922Z,6.88
2023-04-29T10:12:09.062Z,6.68
2023-04-29T10:14:44.537Z,6.18
2023-04-29T10:17:19.438Z,5.90
2023-04-29T10:19:54.428Z,5.88
2023-04-29T10:22:32.652Z,5.60
2023-04-29T10:25:02.959Z,5.35
2023-04-29T10:27:34.962Z,4.80
2023-04-29T10:30:05.034Z,4.45
2023-04-29T10:32:49.746Z,5.15
2023-04-29T10:35:20.373Z,5.55
2023-04-29T10:37:50.088Z,4.88
2023-04-29T10:40:21.265Z,4.90
2023-04-29T10:42:50.429Z,5.55
2023-04-29T10:45:22.668Z,4.55
2023-04-29T10:48:13.031Z,4.80
2023-04-29T10:51:07.918Z,4.82
2023-04-29T10:53:35.689Z,4.03
2023-04-29T10:56:10.808Z,4.15
2023-04-29T10:58:46.809Z,4.75
2023-04-29T11:01:16.584Z,5.00
2023-04-29T11:03:55.101Z,4.60
2023-04-29T11:06:24.974Z,5.20
2023-04-29T11:09:03.686Z,5.05
2023-04-29T11:11:59.025Z,4.47
2023-04-29T11:14:28.651Z,5.68
2023-04-29T11:16:58.880Z,6.55
2023-04-29T11:19:33.951Z,5.72
2023-04-29T11:22:17.510Z,6.03
2023-04-29T11:24:56.948Z,6.35
2023-04-29T11:27:27.140Z,5.65
2023-04-29T11:29:58.697Z,5.22
2023-04-29T11:32:28.400Z,4.70
2023-04-29T11:35:08.928Z,4.55
2023-04-29T11:37:37.057Z,4.80
2023-04-29T11:40:06.661Z,5.00
2023-04-29T11:42:36.257Z,4.47
2023-04-29T11:45:04.302Z,3.90
2023-04-29T11:47:32.592Z,3.40
2023-04-29T11:50:06.215Z,3.95
2023-04-29T11:52:34.570Z,3.63
2023-04-29T11:55:02.288Z,4.07
2023-04-29T11:57:31.250Z,3.65
2023-04-29T11:59:59.525Z,3.20
2023-04-29T12:02:31.833Z,3.20
2023-04-29T12:05:01.504Z,4.00
2023-04-29T12:07:31.241Z,3.47
2023-04-29T12:10:00.164Z,3.58
2023-04-29T12:12:29.624Z,3.65
2023-04-29T12:14:57.459Z,3.40
2023-04-29T12:17:26.170Z,3.92
2023-04-29T12:19:55.217Z,3.40
2023-04-29T12:22:22.962Z,3.45
2023-04-29T12:24:54.733Z,3.20
2023-04-29T12:27:23.084Z,3.85
2023-04-29T12:29:53.685Z,3.80
2023-04-29T12:32:26.360Z,3.90
2023-04-29T12:34:54.572Z,3.28
2023-04-29T12:37:23.050Z,3.67
2023-04-29T12:39:52.950Z,2.67
2023-04-29T12:42:21.248Z,3.47
2023-04-29T12:44:49.809Z,3.05
2023-04-29T12:47:18.469Z,3.28
2023-04-29T12:49:48.288Z,3.67
2023-04-29T12:52:16.353Z,3.40
2023-04-29T12:54:44.797Z,3.70
2023-04-29T12:57:14.421Z,3.90
2023-04-29T12:59:42.612Z,3.67
2023-04-29T13:02:10.569Z,3.97
2023-04-29T13:04:40.116Z,4.15
2023-04-29T13:07:08.090Z,4.63
2023-04-29T13:09:37.879Z,4.60
2023-04-29T13:12:09.358Z,5.13
2023-04-29T13:14:39.048Z,4.78
2023-04-29T13:17:07.364Z,5.40
2023-04-29T13:22:07.433Z,5.25
2023-04-29T13:24:36.528Z,4.95
2023-04-29T13:27:04.311Z,4.55
2023-04-29T13:29:32.258Z,4.57
2023-04-29T13:32:02.114Z,4.80
2023-04-29T13:34:30.477Z,4.18
2023-04-29T13:36:58.708Z,4.25
2023-04-29T13:39:27.047Z,4.10
2023-04-29T13:41:58.899Z,3.80
2023-04-29T13:44:37.709Z,4.00
2023-04-29T13:47:15.524Z,3.72
2023-04-29T13:50:25.632Z,3.83
2023-04-29T13:55:51.221Z,4.38
2023-04-29T13:58:39.893Z,4.95
2023-04-29T14:03:13.012Z,4.65
2023-04-29T14:05:41.329Z,4.10
2023-04-29T14:08:09.431Z,4.22
2023-04-29T14:10:37.884Z,4.07
2023-04-29T14:13:05.552Z,4.75
2023-04-29T14:15:33.352Z,4.47
2023-04-29T14:18:02.283Z,4.57
2023-04-29T14:20:33.860Z,4.07
2023-04-29T14:23:02.298Z,3.97
2023-04-29T14:25:31.577Z,4.47
2023-04-29T14:28:01.410Z,4.15
2023-04-29T14:30:29.684Z,4.60
2023-04-29T14:32:58.435Z,4.63
2023-04-29T14:35:26.169Z,4.82
2023-04-29T14:37:55.214Z,4.90
2023-04-29T14:40:23.035Z,4.50
2023-04-29T14:42:50.675Z,4.57
2023-04-29T14:45:19.066Z,3.85
2023-04-29T14:47:46.903Z,4.50
2023-04-29T14:50:16.204Z,5.00
2023-04-29T14:52:43.978Z,4.60
2023-04-29T14:55:13.506Z,4.38
2023-04-29T14:57:41.408Z,4.07
2023-04-29T15:00:12.298Z,3.50
2023-04-29T15:02:40.018Z,3.67
2023-04-29T15:05:08.429Z,3.95
2023-04-29T15:07:36.731Z,4.40
2023-04-29T15:10:07.394Z,3.80
2023-04-29T15:12:36.698Z,4.38
2023-04-29T15:15:05.185Z,4.20
2023-04-29T15:17:33.026Z,5.15
2023-04-29T15:20:00.824Z,4.13
2023-04-29T15:22:28.667Z,13.73
2023-04-29T15:24:56.474Z,5.43
2023-04-29T15:27:24.542Z,4.82
2023-04-29T15:29:54.575Z,5.18
2023-04-29T15:32:22.560Z,5.03
2023-04-29T15:34:50.653Z,5.15
2023-04-29T15:37:18.451Z,5.15
2023-04-29T15:39:46.181Z,4.70
2023-04-29T15:42:13.846Z,4.78
2023-04-29T15:44:41.570Z,5.97
2023-04-29T15:47:11.589Z,6.18
2023-04-29T15:49:39.512Z,5.18
2023-04-29T15:52:07.809Z,4.97
2023-04-29T15:54:35.808Z,6.10
2023-04-29T15:57:04.516Z,6.15
2023-04-29T15:59:32.342Z,5.85
2023-04-29T16:02:01.415Z,6.15
2023-04-29T16:04:31.300Z,6.68
2023-04-29T16:06:59.030Z,6.72
2023-04-29T16:09:27.878Z,6.68
2023-04-29T16:11:55.708Z,6.88
2023-04-29T16:14:23.641Z,6.55
2023-04-29T16:16:51.977Z,6.68
2023-04-29T16:19:19.766Z,7.00
2023-04-29T16:21:49.695Z,6.18
2023-04-29T16:24:17.784Z,6.63
2023-04-29T16:26:45.712Z,6.68
2023-04-29T16:29:14.009Z,6.97
2023-04-29T16:31:41.696Z,7.60
2023-04-29T16:34:09.922Z,7.43
2023-04-29T16:36:38.080Z,8.25
2023-04-29T16:39:08.826Z,8.05
2023-04-29T16:41:37.749Z,8.30
2023-04-29T16:44:05.719Z,8.70
2023-04-29T16:46:33.622Z,9.18
2023-04-29T16:49:02.023Z,9.57
2023-04-29T16:51:30.335Z,9.60
2023-04-29T16:53:58.167Z,10.27
2023-04-29T16:56:28.191Z,11.48
2023-04-29T16:58:55.961Z,13.48
2023-04-29T17:01:23.711Z,13.20
2023-04-29T17:03:51.423Z,13.88
2023-04-29T17:06:19.447Z,13.60
2023-04-29T17:08:50.052Z,13.90
2023-04-29T17:11:19.414Z,14.50
2023-04-29T17:13:48.517Z,14.05
2023-04-29T17:16:17.362Z,15.18
2023-04-29T17:18:45.059Z,14.70
2023-04-29T17:21:12.793Z,15.13
2023-04-29T17:23:40.686Z,15.63
2023-04-29T17:26:08.663Z,15.95
2023-04-29T17:28:36.645Z,16.38
2023-04-29T17:31:06.372Z,17.02
2023-04-29T17:33:35.448Z,16.08
2023-04-29T17:36:04.079Z,16.45
2023-04-29T17:38:33.072Z,15.85
2023-04-29T17:41:01.051Z,16.63
2023-04-29T17:43:32.297Z,17.73
2023-04-29T17:46:00.410Z,17.85
2023-04-29T17:48:30.240Z,16.90
2023-04-29T17:50:58.152Z,17.20
2023-04-29T17:53:26.638Z,18.55
2023-04-29T17:55:54.520Z,16.95
2023-04-29T17:58:22.398Z,18.15
2023-04-29T18:00:50.476Z,16.95
2023-04-29T18:03:18.239Z,17.75
2023-04-29T18:05:47.572Z,17.08
2023-04-29T18:08:15.314Z,15.55
2023-04-29T18:10:43.345Z,16.13
2023-04-29T18:13:11.495Z,14.57
2023-04-29T18:15:39.232Z,14.38
2023-04-29T18:18:07.728Z,13.30
2023-04-29T18:20:36.397Z,12.40
2023-04-29T18:23:05.462Z,11.48
2023-04-29T18:25:37.162Z,11.13
2023-04-29T18:28:22.971Z,10.40
2023-04-29T18:30:52.444Z,10.35
2023-04-29T18:33:20.459Z,9.63
2023-04-29T18:35:48.413Z,9.65
2023-04-29T18:38:17.750Z,9.50
2023-04-29T18:40:45.652Z,8.50
2023-04-29T18:43:17.034Z,8.38
2023-04-29T18:45:45.179Z,8.30
2023-04-29T18:48:13.197Z,8.50
2023-04-29T18:50:41.677Z,7.65
2023-04-29T18:53:09.965Z,8.20
2023-04-29T18:55:39.391Z,8.40
2023-04-29T18:58:07.151Z,7.55
2023-04-29T19:00:34.783Z,8.10
2023-04-29T19:03:02.549Z,7.90
2023-04-29T19:05:31.051Z,7.80
2023-04-29T19:07:59.089Z,6.78
2023-04-29T19:10:27.248Z,6.47
2023-04-29T19:12:56.390Z,6.70
2023-04-29T19:15:28.481Z,6.85
2023-04-29T19:17:56.224Z,7.05
2023-04-29T19:20:24.318Z,8.15
2023-04-29T19:22:52.139Z,8.18
2023-04-29T19:25:20.343Z,8.15
2023-04-29T19:27:48.952Z,7.95
2023-04-29T19:30:18.798Z,8.75
2023-04-29T19:32:46.773Z,7.80
2023-04-29T19:35:14.573Z,7.45
2023-04-29T19:37:42.469Z,7.32
2023-04-29T19:40:11.769Z,7.28
2023-04-29T19:42:40.625Z,6.88
2023-04-29T19:45:12.499Z,7.00
2023-04-29T19:47:41.644Z,7.50
2023-04-29T19:50:10.326Z,7.57
2023-04-29T19:52:38.482Z,6.75
2023-04-29T19:55:09.105Z,7.75
2023-04-29T19:57:38.023Z,7.50
2023-04-29T20:00:07.795Z,8.13
2023-04-29T20:02:36.486Z,6.75
2023-04-29T20:05:06.751Z,7.85
2023-04-29T20:07:34.761Z,7.30
2023-04-29T20:10:02.611Z,7.55
2023-04-29T20:12:30.552Z,7.45
2023-04-29T20:14:58.401Z,8.30
2023-04-29T20:17:26.300Z,7.78
2023-04-29T20:19:54.235Z,7.95
2023-04-29T20:22:23.385Z,7.40
2023-04-29T20:24:51.393Z,8.18
2023-04-29T20:27:19.529Z,8.60
2023-04-29T20:29:47.574Z,9.77
2023-04-29T20:32:15.709Z,9.32
2023-04-29T20:34:43.692Z,9.48
2023-04-29T20:37:11.440Z,9.30
2023-04-29T20:39:40.779Z,9.60
2023-04-29T20:42:08.604Z,9.52
2023-04-29T20:44:36.892Z,9.57
2023-04-29T20:47:05.464Z,9.40
2023-04-29T20:49:34.896Z,9.35
2023-04-29T20:52:02.633Z,10.40
2023-04-29T20:54:30.820Z,9.85
2023-04-29T20:57:01.548Z,10.10
2023-04-29T20:59:29.602Z,10.25
2023-04-29T21:01:57.334Z,10.05
2023-04-29T21:04:25.699Z,10.60
2023-04-29T21:06:53.846Z,10.18
2023-04-29T21:09:21.832Z,10.25
2023-04-29T21:11:49.606Z,10.60
2023-04-29T21:14:20.059Z,10.35
2023-04-29T21:16:47.952Z,10.70
2023-04-29T21:19:15.748Z,10.43
2023-04-29T21:21:43.790Z,10.02
2023-04-29T21:24:11.781Z,9.85
2023-04-29T21:26:39.549Z,11.10
2023-04-29T21:29:08.634Z,10.75
2023-04-29T21:31:37.885Z,10.85
2023-04-29T21:34:06.116Z,10.73
2023-04-29T21:36:33.990Z,10.68
2023-04-29T21:39:01.932Z,11.63
2023-04-29T21:41:32.890Z,11.90
2023-04-29T21:44:02.873Z,10.85
2023-04-29T21:46:33.153Z,11.13
2023-04-29T21:49:03.352Z,11.05
2023-04-29T21:51:31.974Z,10.82
2023-04-29T21:53:59.661Z,10.70
2023-04-29T21:56:27.638Z,11.90
2023-04-29T21:58:55.365Z,10.93
2023-04-29T22:01:40.419Z,11.77
2023-04-29T22:04:09.808Z,11.80
2023-04-29T22:06:38.208Z,11.70
2023-04-29T22:09:07.182Z,11.27
2023-04-29T22:11:35.451Z,12.25
2023-04-29T22:14:03.161Z,12.25
2023-04-29T22:16:30.821Z,12.00
2023-04-29T22:18:58.789Z,11.90
2023-04-29T22:21:28.761Z,11.98
2023-04-29T22:23:56.730Z,12.57
2023-04-29T22:26:25.468Z,13.35
2023-04-29T22:28:53.325Z,12.23
2023-04-29T22:31:21.539Z,12.70
2023-04-29T22:33:49.624Z,13.82
2023-04-29T22:36:17.581Z,13.52
2023-04-29T22:38:46.776Z,12.77
2023-04-29T22:41:14.669Z,12.90
2023-04-29T22:43:42.392Z,12.18
2023-04-29T22:46:10.093Z,12.68
2023-04-29T22:48:37.895Z,12.95
2023-04-29T22:51:05.985Z,12.57
2023-04-29T22:53:33.992Z,13.48
2023-04-29T22:56:03.324Z,12.55
2023-04-29T22:58:31.529Z,13.48
2023-04-29T23:00:59.447Z,13.35
2023-04-29T23:03:28.086Z,12.98
2023-04-29T23:05:59.366Z,13.27
2023-04-29T23:08:27.362Z,12.70
2023-04-29T23:10:55.780Z,12.85
2023-04-29T23:13:25.016Z,14.02
2023-04-29T23:15:55.954Z,12.50
2023-04-29T23:18:23.689Z,12.65
2023-04-29T23:20:51.646Z,13.45
2023-04-29T23:23:19.471Z,13.20
2023-04-29T23:25:47.564Z,13.32
2023-04-29T23:28:16.280Z,13.93
2023-04-29T23:30:47.411Z,12.63
2023-04-29T23:33:15.434Z,13.23
2023-04-29T23:35:48.443Z,14.65
2023-04-29T23:38:16.203Z,13.60
2023-04-29T23:40:44.289Z,14.77
2023-04-29T23:43:12.048Z,15.00
2023-04-29T23:45:39.747Z,15.73
2023-04-29T23:48:09.699Z,15.75
2023-04-29T23:50:37.576Z,15.77
2023-04-29T23:53:05.731Z,14.38
2023-04-29T23:55:34.467Z,15.45
2023-04-29T23:58:02.122Z,14.50
